createdAt,value
2022-12-22T00:01:31.571Z,100499.31
2022-12-22T00:04:24.620Z,100507.03
2022-12-22T00:07:10.044Z,100508.63
2022-12-22T00:09:59.963Z,100500.91
2022-12-22T00:12:45.291Z,100500.72
2022-12-22T00:15:34.830Z,100501.59
2022-12-22T00:18:20.098Z,100489.63
2022-12-22T00:21:05.347Z,100492.47
2022-12-22T00:23:50.724Z,100490.16
2022-12-22T00:26:36.008Z,100484.22
2022-12-22T00:29:21.455Z,100485.81
2022-12-22T00:32:06.727Z,100482.28
2022-12-22T00:34:56.095Z,100476.94
2022-12-22T00:37:47.943Z,100472.78
2022-12-22T00:40:36.894Z,100479.00
2022-12-22T00:43:22.166Z,100483.44
2022-12-22T00:46:07.365Z,100480.13
2022-12-22T00:48:52.828Z,100492.56
2022-12-22T00:51:38.200Z,100486.88
2022-12-22T00:54:27.353Z,100486.81
2022-12-22T00:57:12.669Z,100491.47
2022-12-22T01:00:00.460Z,100491.84
2022-12-22T01:02:45.872Z,100487.59
2022-12-22T01:05:33.511Z,100473.59
2022-12-22T01:08:18.833Z,100473.84
2022-12-22T01:11:04.207Z,100472.38
2022-12-22T01:13:49.521Z,100470.22
2022-12-22T01:16:35.056Z,100475.19
2022-12-22T01:19:23.250Z,100477.13
2022-12-22T01:22:08.512Z,100469.69
2022-12-22T01:24:53.846Z,100469.06
2022-12-22T01:27:42.150Z,100459.94
2022-12-22T01:30:30.614Z,100459.22
2022-12-22T01:33:17.109Z,100461.69
2022-12-22T01:36:02.262Z,100457.72
2022-12-22T01:38:47.851Z,100457.44
2022-12-22T01:41:33.921Z,100446.66
2022-12-22T01:44:19.058Z,100442.38
2022-12-22T01:47:04.794Z,100440.19
2022-12-22T01:49:50.116Z,100429.28
2022-12-22T01:52:35.439Z,100423.31
2022-12-22T01:55:26.560Z,100427.94
2022-12-22T01:58:14.217Z,100432.19
2022-12-22T02:00:59.568Z,100435.47
2022-12-22T02:03:44.999Z,100439.38
2022-12-22T02:06:45.777Z,100443.88
2022-12-22T02:09:51.369Z,100433.25
2022-12-22T02:12:49.098Z,100433.59
2022-12-22T02:15:53.192Z,100433.34
2022-12-22T02:18:42.606Z,100431.38
2022-12-22T02:21:31.882Z,100421.88
2022-12-22T02:24:26.149Z,100430.03
2022-12-22T02:27:11.425Z,100422.47
2022-12-22T02:29:59.749Z,100422.84
2022-12-22T02:32:45.159Z,100428.44
2022-12-22T02:35:31.701Z,100421.78
2022-12-22T02:38:29.026Z,100427.22
2022-12-22T02:41:17.220Z,100421.38
2022-12-22T02:44:19.410Z,100426.38
2022-12-22T02:47:11.217Z,100422.31
2022-12-22T02:50:12.402Z,100423.28
2022-12-22T02:52:58.449Z,100420.16
2022-12-22T02:55:46.416Z,100415.28
2022-12-22T02:58:32.311Z,100413.41
2022-12-22T03:01:20.597Z,100421.47
2022-12-22T03:04:06.085Z,100418.16
2022-12-22T03:06:51.490Z,100419.06
2022-12-22T03:09:37.963Z,100417.22
2022-12-22T03:12:25.436Z,100417.63
2022-12-22T03:15:13.084Z,100415.16
2022-12-22T03:17:58.453Z,100415.16
2022-12-22T03:20:43.546Z,100414.53
2022-12-22T03:23:33.322Z,100407.88
2022-12-22T03:26:00.277Z,100398.38
2022-12-22T03:28:29.538Z,100399.25
2022-12-22T03:31:00.524Z,100398.44
2022-12-22T03:33:29.636Z,100399.50
2022-12-22T03:35:56.433Z,100398.78
2022-12-22T03:38:27.170Z,100393.72
2022-12-22T03:40:56.905Z,100391.13
2022-12-22T03:43:42.243Z,100373.75
2022-12-22T03:46:30.797Z,100371.72
2022-12-22T03:49:11.292Z,100380.97
2022-12-22T03:51:42.298Z,100381.59
2022-12-22T03:54:09.598Z,100377.25
2022-12-22T03:56:36.495Z,100380.53
2022-12-22T03:59:05.788Z,100382.00
2022-12-22T04:01:41.197Z,100393.78
2022-12-22T04:04:08.031Z,100396.44
2022-12-22T04:06:34.709Z,100390.31
2022-12-22T04:09:01.294Z,100402.84
2022-12-22T04:11:46.458Z,100399.41
2022-12-22T04:14:18.448Z,100401.09
2022-12-22T04:16:45.071Z,100400.38
2022-12-22T04:19:11.681Z,100402.06
2022-12-22T04:21:40.821Z,100401.25
2022-12-22T04:24:10.818Z,100403.28
2022-12-22T04:26:40.087Z,100404.72
2022-12-22T04:29:06.687Z,100399.69
2022-12-22T04:31:35.705Z,100401.31
2022-12-22T04:34:02.398Z,100403.13
2022-12-22T04:36:28.976Z,100404.06
2022-12-22T04:38:58.593Z,100398.09
2022-12-22T04:41:25.143Z,100387.00
2022-12-22T04:43:51.859Z,100393.19
2022-12-22T04:46:18.479Z,100389.91
2022-12-22T04:48:45.167Z,100395.31
2022-12-22T04:51:16.477Z,100393.00
2022-12-22T04:53:43.266Z,100381.91
2022-12-22T04:56:12.314Z,100385.53
2022-12-22T04:58:41.605Z,100385.53
2022-12-22T05:01:16.856Z,100386.56
2022-12-22T05:03:46.145Z,100374.69
2022-12-22T05:06:13.158Z,100384.34
2022-12-22T05:08:39.772Z,100384.69
2022-12-22T05:11:08.889Z,100379.63
2022-12-22T05:13:38.124Z,100384.00
2022-12-22T05:16:06.681Z,100377.16
2022-12-22T05:18:33.932Z,100373.69
2022-12-22T05:21:07.603Z,100373.59
2022-12-22T05:23:34.206Z,100383.06
2022-12-22T05:26:03.331Z,100386.63
2022-12-22T05:28:30.055Z,100386.78
2022-12-22T05:30:56.652Z,100390.91
2022-12-22T05:33:25.729Z,100390.72
2022-12-22T05:35:52.599Z,100387.09
2022-12-22T05:38:21.037Z,100388.81
2022-12-22T05:40:48.333Z,100376.97
2022-12-22T05:43:15.036Z,100380.38
2022-12-22T05:45:44.159Z,100373.44
2022-12-22T05:48:18.898Z,100364.00
2022-12-22T05:50:49.087Z,100370.84
2022-12-22T05:53:18.206Z,100362.34
2022-12-22T05:55:44.852Z,100356.38
2022-12-22T05:58:11.499Z,100362.97
2022-12-22T06:00:43.165Z,100362.19
2022-12-22T06:03:12.667Z,100371.47
2022-12-22T06:05:39.383Z,100374.03
2022-12-22T06:08:06.196Z,100377.44
2022-12-22T06:10:35.963Z,100380.88
2022-12-22T06:13:05.379Z,100380.06
2022-12-22T06:15:34.339Z,100372.00
2022-12-22T06:18:01.065Z,100372.09
2022-12-22T06:20:30.317Z,100393.50
2022-12-22T06:27:03.359Z,100393.66
2022-12-22T06:32:43.385Z,100401.41
2022-12-22T06:35:10.570Z,100391.91
2022-12-22T06:37:39.616Z,100397.41
2022-12-22T06:40:07.213Z,100406.44
2022-12-22T06:45:36.712Z,100397.56
2022-12-22T06:48:08.404Z,100407.91
2022-12-22T06:50:40.446Z,100412.44
2022-12-22T06:53:09.590Z,100404.72
2022-12-22T06:55:36.766Z,100419.31
2022-12-22T06:58:03.609Z,100416.03
2022-12-22T07:00:30.321Z,100419.34
2022-12-22T07:02:57.290Z,100416.88
2022-12-22T07:05:26.742Z,100402.84
2022-12-22T07:07:53.430Z,100406.78
2022-12-22T07:10:43.384Z,100406.56
2022-12-22T07:13:24.233Z,100408.16
2022-12-22T07:15:59.587Z,100403.53
2022-12-22T07:18:28.678Z,100402.97
2022-12-22T07:20:57.774Z,100402.13
2022-12-22T07:23:27.052Z,100404.31
2022-12-22T07:25:53.766Z,100405.81
2022-12-22T07:28:21.134Z,100399.56
2022-12-22T07:30:51.204Z,100400.00
2022-12-22T07:33:18.004Z,100402.09
2022-12-22T07:35:46.925Z,100414.44
2022-12-22T07:38:13.724Z,100404.31
2022-12-22T07:40:42.476Z,100406.44
2022-12-22T07:43:09.658Z,100408.13
2022-12-22T07:45:36.732Z,100403.38
2022-12-22T07:48:24.109Z,100405.34
2022-12-22T07:50:51.229Z,100414.13
2022-12-22T07:53:17.806Z,100419.53
2022-12-22T07:55:44.456Z,100418.84
2022-12-22T07:58:13.336Z,100412.59
2022-12-22T08:00:42.595Z,100420.84
2022-12-22T08:03:09.379Z,100415.94
2022-12-22T08:05:37.280Z,100411.84
2022-12-22T08:08:03.989Z,100410.88
2022-12-22T08:10:33.125Z,100409.28
2022-12-22T08:12:59.864Z,100407.97
2022-12-22T08:15:26.504Z,100415.19
2022-12-22T08:17:53.181Z,100400.25
2022-12-22T08:20:19.779Z,100412.72
2022-12-22T08:22:47.553Z,100408.84
2022-12-22T08:25:16.847Z,100402.59
2022-12-22T08:27:44.830Z,100402.25
2022-12-22T08:30:11.615Z,100396.81
2022-12-22T08:32:39.752Z,100396.31
2022-12-22T08:35:06.747Z,100403.53
2022-12-22T08:37:41.395Z,100391.09
2022-12-22T08:40:37.742Z,100395.72
2022-12-22T08:43:07.816Z,100400.06
2022-12-22T08:45:36.951Z,100402.66
2022-12-22T08:48:06.053Z,100415.63
2022-12-22T08:50:35.206Z,100413.44
2022-12-22T08:53:05.528Z,100405.00
2022-12-22T08:55:32.227Z,100400.19
2022-12-22T08:57:58.881Z,100397.19
2022-12-22T09:00:25.641Z,100397.34
2022-12-22T09:02:52.587Z,100397.44
2022-12-22T09:05:19.484Z,100392.53
2022-12-22T09:07:49.182Z,100401.13
2022-12-22T09:10:18.170Z,100386.44
2022-12-22T09:12:45.029Z,100396.38
2022-12-22T09:15:14.791Z,100393.50
2022-12-22T09:17:44.544Z,100387.59
2022-12-22T09:20:12.308Z,100380.09
2022-12-22T09:22:38.921Z,100376.75
2022-12-22T09:25:08.170Z,100369.84
2022-12-22T09:27:34.793Z,100363.34
2022-12-22T09:30:01.484Z,100362.25
2022-12-22T09:32:28.138Z,100360.56
2022-12-22T09:34:54.768Z,100351.75
2022-12-22T09:37:21.432Z,100353.13
2022-12-22T09:39:48.280Z,100355.44
2022-12-22T09:42:15.963Z,100362.66
2022-12-22T09:44:46.056Z,100366.13
2022-12-22T09:47:15.223Z,100351.41
2022-12-22T09:49:41.785Z,100354.22
2022-12-22T09:52:18.279Z,100356.41
2022-12-22T09:54:45.044Z,100353.81
2022-12-22T09:57:14.110Z,100350.44
2022-12-22T09:59:40.818Z,100342.00
2022-12-22T10:02:16.005Z,100343.22
2022-12-22T10:05:08.146Z,100341.91
2022-12-22T10:07:35.992Z,100339.97
2022-12-22T10:10:05.871Z,100349.72
2022-12-22T10:12:32.537Z,100344.03
2022-12-22T10:14:59.120Z,100332.91
2022-12-22T10:17:32.802Z,100329.78
2022-12-22T10:20:17.712Z,100329.63
2022-12-22T10:22:48.874Z,100315.66
2022-12-22T10:25:52.435Z,100320.00
2022-12-22T10:28:23.748Z,100324.53
2022-12-22T10:31:13.212Z,100314.19
2022-12-22T10:33:47.072Z,100317.53
2022-12-22T10:36:37.257Z,100309.72
2022-12-22T10:39:04.122Z,100300.06
2022-12-22T10:41:35.184Z,100309.72
2022-12-22T10:44:01.901Z,100311.94
2022-12-22T10:46:47.728Z,100297.28
2022-12-22T10:49:24.189Z,100282.69
2022-12-22T10:52:11.099Z,100274.72
2022-12-22T10:54:44.290Z,100278.00
2022-12-22T10:57:13.120Z,100290.81
2022-12-22T10:59:51.890Z,100288.69
2022-12-22T11:02:22.174Z,100285.25
2022-12-22T11:04:54.663Z,100278.94
2022-12-22T11:07:29.223Z,100278.66
2022-12-22T11:09:56.307Z,100281.00
2022-12-22T11:12:34.180Z,100287.69
2022-12-22T11:15:12.034Z,100281.72
2022-12-22T11:17:44.781Z,100261.63
2022-12-22T11:20:11.485Z,100263.97
2022-12-22T11:22:42.004Z,100265.50
2022-12-22T11:25:30.464Z,100270.00
2022-12-22T11:27:57.269Z,100258.69
2022-12-22T11:30:26.609Z,100257.97
2022-12-22T11:33:00.681Z,100252.84
2022-12-22T11:35:35.218Z,100258.19
2022-12-22T11:38:24.258Z,100247.28
2022-12-22T11:41:19.473Z,100262.84
2022-12-22T11:43:57.644Z,100268.91
2022-12-22T11:46:35.095Z,100276.41
2022-12-22T11:49:20.399Z,100271.91
2022-12-22T11:51:56.144Z,100275.19
2022-12-22T11:54:43.994Z,100264.44
2022-12-22T11:57:19.566Z,100266.50
2022-12-22T12:00:05.142Z,100265.31
2022-12-22T12:02:46.911Z,100251.16
2022-12-22T12:05:19.469Z,100317.34
2022-12-22T12:07:48.824Z,100273.53
2022-12-22T12:10:15.453Z,100261.03
2022-12-22T12:12:45.312Z,100259.13
2022-12-22T12:15:30.331Z,100258.19
2022-12-22T12:18:12.001Z,100251.34
2022-12-22T12:20:41.607Z,100252.56
2022-12-22T12:23:19.433Z,100231.59
2022-12-22T12:25:55.215Z,100238.44
2022-12-22T12:28:25.231Z,100239.06
2022-12-22T12:30:55.671Z,100246.91
2022-12-22T12:33:31.415Z,100264.72
2022-12-22T12:36:33.360Z,100291.38
2022-12-22T12:39:17.378Z,100301.44
2022-12-22T12:41:59.198Z,100297.84
2022-12-22T12:44:30.735Z,100292.13
2022-12-22T12:47:02.618Z,100283.50
2022-12-22T12:49:34.539Z,100287.09
2022-12-22T12:52:10.496Z,100288.97
2022-12-22T12:54:43.760Z,100295.03
2022-12-22T12:57:31.032Z,100282.63
2022-12-22T12:59:58.473Z,100277.19
2022-12-22T13:02:27.988Z,100273.22
2022-12-22T13:05:13.205Z,100273.50
2022-12-22T13:07:59.031Z,100272.78
2022-12-22T13:10:25.790Z,100279.72
2022-12-22T13:12:53.381Z,100276.25
2022-12-22T13:15:34.818Z,100273.66
2022-12-22T13:18:05.469Z,100255.41
2022-12-22T13:20:33.199Z,100225.66
2022-12-22T13:23:02.635Z,100227.63
2022-12-22T13:25:41.624Z,100243.81
2022-12-22T13:28:13.947Z,100241.09
2022-12-22T13:30:40.703Z,100244.78
2022-12-22T13:33:09.870Z,100231.59
2022-12-22T13:35:47.080Z,100227.53
2022-12-22T13:38:31.579Z,100195.50
2022-12-22T13:41:05.568Z,100191.38
2022-12-22T13:43:32.320Z,100212.59
2022-12-22T13:46:00.339Z,100188.66
2022-12-22T13:48:43.304Z,100192.44
2022-12-22T13:51:15.109Z,100188.25
2022-12-22T13:54:08.953Z,100212.22
2022-12-22T13:56:40.946Z,100178.81
2022-12-22T13:59:16.969Z,100192.44
2022-12-22T14:02:05.567Z,100185.34
2022-12-22T14:04:32.802Z,100185.50
2022-12-22T14:07:11.196Z,100195.75
2022-12-22T14:09:37.851Z,100192.53
2022-12-22T14:12:08.408Z,100196.41
2022-12-22T14:14:44.344Z,100210.47
2022-12-22T14:17:24.075Z,100190.53
2022-12-22T14:19:55.705Z,100197.88
2022-12-22T14:22:29.455Z,100200.72
2022-12-22T14:25:01.786Z,100197.19
2022-12-22T14:27:43.039Z,100194.13
2022-12-22T14:30:20.956Z,100196.97
2022-12-22T14:32:55.876Z,100209.88
2022-12-22T14:35:24.508Z,100208.03
2022-12-22T14:37:51.349Z,100239.75
2022-12-22T14:40:37.297Z,100247.56
2022-12-22T14:43:07.578Z,100237.16
2022-12-22T14:45:34.315Z,100248.75
2022-12-22T14:48:03.704Z,100229.25
2022-12-22T14:50:38.862Z,100238.03
2022-12-22T14:53:08.144Z,100224.00
2022-12-22T14:55:40.366Z,100222.31
2022-12-22T14:58:10.001Z,100204.94
2022-12-22T15:00:36.818Z,100199.22
2022-12-22T15:03:08.269Z,100194.97
2022-12-22T15:05:40.936Z,100185.19
2022-12-22T15:08:33.284Z,100197.34
2022-12-22T15:11:03.007Z,100208.78
2022-12-22T15:13:29.794Z,100206.50
2022-12-22T15:15:59.391Z,100208.59
2022-12-22T15:18:26.846Z,100203.75
2022-12-22T15:20:58.893Z,100212.41
2022-12-22T15:23:25.496Z,100211.03
2022-12-22T15:25:52.179Z,100197.75
2022-12-22T15:28:18.774Z,100205.19
2022-12-22T15:30:45.866Z,100186.06
2022-12-22T15:33:16.944Z,100188.56
2022-12-22T15:35:46.541Z,100175.72
2022-12-22T15:38:17.675Z,100167.50
2022-12-22T15:40:46.356Z,100165.34
2022-12-22T15:43:29.229Z,100178.06
2022-12-22T15:46:04.695Z,100151.34
2022-12-22T15:48:35.975Z,100146.97
2022-12-22T15:51:06.495Z,100162.44
2022-12-22T15:53:33.428Z,100152.16
2022-12-22T15:56:02.417Z,100150.84
2022-12-22T15:58:31.437Z,100149.66
2022-12-22T16:00:58.149Z,100145.91
2022-12-22T16:03:24.972Z,100151.34
2022-12-22T16:05:59.638Z,100146.38
2022-12-22T16:08:30.643Z,100166.03
2022-12-22T16:11:07.488Z,100154.41
2022-12-22T16:13:40.857Z,100163.41
2022-12-22T16:16:08.556Z,100171.41
2022-12-22T16:18:37.686Z,100185.72
2022-12-22T16:21:12.145Z,100185.47
2022-12-22T16:23:43.690Z,100190.44
2022-12-22T16:26:12.106Z,100201.31
2022-12-22T16:28:41.881Z,100206.09
2022-12-22T16:31:11.790Z,100198.59
2022-12-22T16:33:38.581Z,100204.59
2022-12-22T16:36:07.321Z,100204.31
2022-12-22T16:38:35.917Z,100197.59
2022-12-22T16:41:03.704Z,100203.41
2022-12-22T16:46:22.584Z,100193.63
2022-12-22T16:48:53.448Z,100189.38
2022-12-22T16:51:23.299Z,100194.94
2022-12-22T16:53:53.735Z,100192.91
2022-12-22T16:56:26.683Z,100201.84
2022-12-22T16:58:53.472Z,100196.78
2022-12-22T17:01:36.473Z,100195.00
2022-12-22T17:04:10.142Z,100184.59
2022-12-22T17:06:41.575Z,100189.84
2022-12-22T17:09:13.676Z,100178.22
2022-12-22T17:11:40.335Z,100177.19
2022-12-22T17:14:08.203Z,100175.03
2022-12-22T17:16:35.021Z,100184.06
2022-12-22T17:19:04.111Z,100166.59
2022-12-22T17:21:30.809Z,100165.31
2022-12-22T17:24:03.853Z,100169.88
2022-12-22T17:26:31.416Z,100170.94
2022-12-22T17:28:58.761Z,100168.19
2022-12-22T17:31:26.416Z,100177.69
2022-12-22T17:33:56.673Z,100172.06
2022-12-22T17:36:33.681Z,100173.28
2022-12-22T17:39:00.404Z,100171.75
2022-12-22T17:41:27.096Z,100170.94
2022-12-22T17:43:53.787Z,100174.28
2022-12-22T17:46:20.813Z,100166.38
2022-12-22T17:48:47.789Z,100169.88
2022-12-22T17:51:15.754Z,100178.06
2022-12-22T17:53:43.553Z,100171.59
2022-12-22T17:56:19.685Z,100170.13
2022-12-22T17:58:46.718Z,100177.03
2022-12-22T18:01:26.147Z,100167.97
2022-12-22T18:03:55.703Z,100166.66
2022-12-22T18:06:24.146Z,100172.50
2022-12-22T18:08:56.243Z,100166.69
2022-12-22T18:11:23.099Z,100171.31
2022-12-22T18:13:52.533Z,100171.22
2022-12-22T18:16:20.559Z,100173.38
2022-12-22T18:18:49.662Z,100179.81
2022-12-22T18:21:19.640Z,100172.09
2022-12-22T18:23:50.738Z,100175.59
2022-12-22T18:26:22.273Z,100180.19
2022-12-22T18:28:49.142Z,100171.63
2022-12-22T18:31:20.718Z,100177.59
2022-12-22T18:33:47.526Z,100178.16
2022-12-22T18:36:18.308Z,100164.94
2022-12-22T18:38:45.343Z,100165.44
2022-12-22T18:41:13.344Z,100148.91
2022-12-22T18:43:39.931Z,100155.50
2022-12-22T18:46:08.805Z,100147.28
2022-12-22T18:48:35.380Z,100148.28
2022-12-22T18:51:02.219Z,100137.59
2022-12-22T18:53:29.744Z,100136.22
2022-12-22T18:55:59.692Z,100120.53
2022-12-22T18:58:29.532Z,100119.66
2022-12-22T19:00:56.893Z,100130.59
2022-12-22T19:03:29.167Z,100129.72
2022-12-22T19:05:56.303Z,100113.53
2022-12-22T19:08:24.380Z,100115.50
2022-12-22T19:11:14.899Z,100116.59
2022-12-22T19:13:43.282Z,100109.84
2022-12-22T19:16:12.628Z,100112.25
2022-12-22T19:18:41.942Z,100110.34
2022-12-22T19:21:15.430Z,100109.38
2022-12-22T19:23:44.986Z,100117.03
2022-12-22T19:26:22.982Z,100108.81
2022-12-22T19:28:52.600Z,100105.72
2022-12-22T19:31:21.512Z,100108.38
2022-12-22T19:33:50.911Z,100107.44
2022-12-22T19:36:25.659Z,100094.41
2022-12-22T19:39:04.129Z,100085.03
2022-12-22T19:41:34.841Z,100071.44
2022-12-22T19:44:01.723Z,100077.56
2022-12-22T19:46:29.286Z,100080.22
2022-12-22T19:48:57.264Z,100079.91
2022-12-22T19:51:24.034Z,100080.50
2022-12-22T19:53:50.809Z,100075.78
2022-12-22T19:56:20.480Z,100064.94
2022-12-22T19:58:47.220Z,100068.03
2022-12-22T20:01:13.917Z,100058.25
2022-12-22T20:03:40.857Z,100068.25
2022-12-22T20:06:10.042Z,100072.53
2022-12-22T20:08:38.886Z,100075.91
2022-12-22T20:11:10.884Z,100084.56
2022-12-22T20:13:37.602Z,100087.78
2022-12-22T20:16:06.919Z,100087.72
2022-12-22T20:18:36.526Z,100080.19
2022-12-22T20:21:04.229Z,100080.19
2022-12-22T20:23:33.162Z,100070.38
2022-12-22T20:26:02.711Z,100078.09
2022-12-22T20:28:30.679Z,100081.94
2022-12-22T20:31:02.663Z,100077.06
2022-12-22T20:33:29.585Z,100074.06
2022-12-22T20:35:59.929Z,100068.28
2022-12-22T20:38:27.659Z,100062.59
2022-12-22T20:40:54.900Z,100054.47
2022-12-22T20:43:25.883Z,100047.56
2022-12-22T20:45:53.362Z,100057.22
2022-12-22T20:48:23.096Z,100062.34
2022-12-22T20:50:50.209Z,100065.16
2022-12-22T20:53:18.566Z,100062.56
2022-12-22T20:55:46.300Z,100056.22
2022-12-22T20:58:20.127Z,100038.72
2022-12-22T21:00:46.832Z,100044.97
2022-12-22T21:03:15.786Z,100046.59
2022-12-22T21:05:42.550Z,100046.81
2022-12-22T21:08:20.239Z,100050.03
2022-12-22T21:10:53.143Z,100050.38
2022-12-22T21:13:22.628Z,100048.50
2022-12-22T21:15:49.971Z,100053.66
2022-12-22T21:18:20.616Z,100054.63
2022-12-22T21:20:50.100Z,100054.91
2022-12-22T21:23:16.810Z,100057.09
2022-12-22T21:25:46.674Z,100049.75
2022-12-22T21:28:24.144Z,100036.78
2022-12-22T21:30:50.792Z,100038.25
2022-12-22T21:33:17.557Z,100048.72
2022-12-22T21:35:44.114Z,100056.56
2022-12-22T21:38:15.524Z,100047.06
2022-12-22T21:40:42.315Z,100041.69
2022-12-22T21:43:11.506Z,100043.06
2022-12-22T21:45:42.704Z,100044.19
2022-12-22T21:48:19.138Z,100036.53
2022-12-22T21:50:50.346Z,100032.50
2022-12-22T21:53:22.002Z,100040.94
2022-12-22T21:55:50.246Z,100046.81
2022-12-22T21:58:18.329Z,100040.72
2022-12-22T22:00:46.635Z,100035.09
2022-12-22T22:03:13.542Z,100035.19
2022-12-22T22:05:40.205Z,100035.53
2022-12-22T22:08:07.594Z,100042.19
2022-12-22T22:10:38.301Z,100026.09
2022-12-22T22:13:07.286Z,100036.19
2022-12-22T22:15:36.321Z,100026.78
2022-12-22T22:18:07.270Z,100033.22
2022-12-22T22:20:34.749Z,100025.38
2022-12-22T22:23:01.951Z,100028.25
2022-12-22T22:25:28.601Z,100040.38
2022-12-22T22:28:00.516Z,100032.84
2022-12-22T22:30:27.268Z,100033.41
2022-12-22T22:32:56.740Z,100035.56
2022-12-22T22:35:26.171Z,100042.75
2022-12-22T22:37:52.825Z,100033.94
2022-12-22T22:40:20.701Z,100029.78
2022-12-22T22:42:50.638Z,100022.47
2022-12-22T22:45:28.080Z,100030.41
2022-12-22T22:47:54.907Z,100020.72
2022-12-22T22:50:24.475Z,100010.59
2022-12-22T22:52:51.144Z,100007.34
2022-12-22T22:55:20.314Z,100008.41
2022-12-22T22:57:47.091Z,100018.25
2022-12-22T23:00:14.859Z,100015.53
2022-12-22T23:02:41.949Z,100010.56
2022-12-22T23:05:09.138Z,100021.50
2022-12-22T23:07:38.662Z,100017.53
2022-12-22T23:10:07.914Z,100015.84
2022-12-22T23:12:34.532Z,100006.25
2022-12-22T23:15:01.956Z,100006.53
2022-12-22T23:17:31.044Z,100017.13
2022-12-22T23:20:00.339Z,100024.13
2022-12-22T23:22:29.249Z,100010.59
2022-12-22T23:24:58.808Z,100008.97
2022-12-22T23:27:26.009Z,99985.22
2022-12-22T23:29:52.633Z,99989.78
2022-12-22T23:32:21.374Z,99982.22
2022-12-22T23:34:50.673Z,99984.34
2022-12-22T23:37:22.834Z,99987.31
2022-12-22T23:39:49.423Z,99991.16
2022-12-22T23:42:15.985Z,100009.97
2022-12-22T23:44:42.586Z,100005.16
2022-12-22T23:47:11.782Z,99994.47
2022-12-22T23:49:41.554Z,99994.19
2022-12-22T23:52:13.556Z,100000.63
2022-12-22T23:54:40.183Z,100001.63
2022-12-22T23:57:06.706Z,100015.31
2022-12-22T23:59:35.630Z,100007.16
